Willimantic River @ Coventry, Ct

Willimantic River at Coventry
 Total Drainage Area: 121 sq. miles 
 Drainage Area Controlled by Corps Dams: 0 sq. miles (0%) 
 Warning Flow/Stage: 1,310 cfs / 6.5 feet 
 Flood Flow/Stage: 2,740 cfs / 9.0 feet 
Date Time
(Eastern)
Stage
(ft)
Flow
(cfs)
CSM
(cfs / sq. mi.)
Jun-25 12:15 am 3.46 162 1.3
Jun-24 11:15 pm 3.48 166 1.4
Jun-24 10:15 pm 3.50 170 1.4
Jun-24 09:15 pm 3.52 174 1.4
Jun-24 08:15 pm 3.54 178 1.5
Jun-24 07:15 pm 3.56 182 1.5
Jun-24 06:15 pm 3.59 189 1.6
Jun-24 05:15 pm 3.60 191 1.6
Jun-24 04:15 pm 3.63 197 1.6
Jun-24 03:15 pm 3.65 202 1.7
Jun-24 02:15 pm 3.68 209 1.7
Jun-24 01:15 pm 3.69 211 1.7
Jun-24 12:15 pm 3.72 218 1.8
Jun-24 11:15 am 3.76 228 1.9
Jun-24 10:15 am 3.79 235 1.9
Jun-24 09:15 am 3.81 240 2.0
Jun-24 08:15 am 3.84 248 2.1
Jun-24 07:15 am 3.86 253 2.1
Jun-24 06:15 am 3.89 261 2.2
Jun-24 05:15 am 3.92 269 2.2
Jun-24 04:15 am 3.95 277 2.3
Jun-24 03:15 am 3.98 286 2.4
Jun-24 02:15 am 4.00 291 2.4
Jun-24 01:15 am 4.03 300 2.5
Jun-24 12:15 am 4.04 303 2.5
Report Generated June 25, 2024 01:18 am